sensor_id;sensor_type;location;lat;lon;timestamp;P1;durP1;ratioP1;P2;durP2;ratioP2
4377;SDS011;2203;53.686;9.994;2023-02-01T00:01:09;35.53;;;4.90;;
4377;SDS011;2203;53.686;9.994;2023-02-01T00:03:34;39.90;;;4.30;;
4377;SDS011;2203;53.686;9.994;2023-02-01T00:06:00;55.30;;;7.97;;
4377;SDS011;2203;53.686;9.994;2023-02-01T00:08:26;44.13;;;5.90;;
4377;SDS011;2203;53.686;9.994;2023-02-01T00:11:01;40.97;;;5.67;;
4377;SDS011;2203;53.686;9.994;2023-02-01T00:13:29;42.67;;;4.90;;
4377;SDS011;2203;53.686;9.994;2023-02-01T00:16:02;42.20;;;5.57;;
4377;SDS011;2203;53.686;9.994;2023-02-01T00:18:28;30.27;;;4.17;;
4377;SDS011;2203;53.686;9.994;2023-02-01T00:20:54;33.53;;;4.00;;
4377;SDS011;2203;53.686;9.994;2023-02-01T00:23:19;48.37;;;7.20;;
4377;SDS011;2203;53.686;9.994;2023-02-01T00:25:44;38.27;;;4.00;;
4377;SDS011;2203;53.686;9.994;2023-02-01T00:28:10;39.13;;;6.60;;
4377;SDS011;2203;53.686;9.994;2023-02-01T00:30:35;44.07;;;6.30;;
4377;SDS011;2203;53.686;9.994;2023-02-01T00:33:00;53.17;;;5.63;;
4377;SDS011;2203;53.686;9.994;2023-02-01T00:35:26;46.73;;;6.47;;
4377;SDS011;2203;53.686;9.994;2023-02-01T00:37:51;45.73;;;6.93;;
4377;SDS011;2203;53.686;9.994;2023-02-01T00:40:17;43.27;;;6.17;;
4377;SDS011;2203;53.686;9.994;2023-02-01T00:42:42;52.30;;;6.23;;
4377;SDS011;2203;53.686;9.994;2023-02-01T00:45:08;45.00;;;6.07;;
4377;SDS011;2203;53.686;9.994;2023-02-01T00:47:33;40.97;;;5.93;;
4377;SDS011;2203;53.686;9.994;2023-02-01T00:49:59;43.50;;;6.43;;
4377;SDS011;2203;53.686;9.994;2023-02-01T00:52:24;52.03;;;6.17;;
4377;SDS011;2203;53.686;9.994;2023-02-01T00:54:50;40.67;;;5.63;;
4377;SDS011;2203;53.686;9.994;2023-02-01T00:57:15;46.00;;;5.23;;
4377;SDS011;2203;53.686;9.994;2023-02-01T00:59:41;50.37;;;6.67;;
4377;SDS011;2203;53.686;9.994;2023-02-01T01:02:06;47.87;;;4.90;;
4377;SDS011;2203;53.686;9.994;2023-02-01T01:04:32;33.90;;;5.30;;
4377;SDS011;2203;53.686;9.994;2023-02-01T01:06:57;44.37;;;6.20;;
4377;SDS011;2203;53.686;9.994;2023-02-01T01:09:22;55.70;;;7.27;;
4377;SDS011;2203;53.686;9.994;2023-02-01T01:11:48;52.60;;;6.53;;
4377;SDS011;2203;53.686;9.994;2023-02-01T01:14:13;65.87;;;6.40;;
4377;SDS011;2203;53.686;9.994;2023-02-01T01:16:38;55.10;;;6.60;;
4377;SDS011;2203;53.686;9.994;2023-02-01T01:19:04;51.60;;;6.17;;
4377;SDS011;2203;53.686;9.994;2023-02-01T01:21:30;45.43;;;5.73;;
4377;SDS011;2203;53.686;9.994;2023-02-01T01:23:56;48.70;;;6.83;;
4377;SDS011;2203;53.686;9.994;2023-02-01T01:26:25;72.83;;;8.50;;
4377;SDS011;2203;53.686;9.994;2023-02-01T01:28:52;38.60;;;6.70;;
4377;SDS011;2203;53.686;9.994;2023-02-01T01:31:18;56.40;;;6.63;;
4377;SDS011;2203;53.686;9.994;2023-02-01T01:33:47;88.60;;;7.93;;
4377;SDS011;2203;53.686;9.994;2023-02-01T01:36:13;55.87;;;6.93;;
4377;SDS011;2203;53.686;9.994;2023-02-01T01:38:39;54.10;;;6.10;;
4377;SDS011;2203;53.686;9.994;2023-02-01T01:41:05;46.67;;;5.47;;
4377;SDS011;2203;53.686;9.994;2023-02-01T01:43:50;49.83;;;6.30;;
4377;SDS011;2203;53.686;9.994;2023-02-01T01:46:38;59.57;;;7.17;;
4377;SDS011;2203;53.686;9.994;2023-02-01T01:51:31;51.60;;;5.83;;
4377;SDS011;2203;53.686;9.994;2023-02-01T01:54:06;54.47;;;6.30;;
4377;SDS011;2203;53.686;9.994;2023-02-01T01:56:51;43.80;;;6.40;;
4377;SDS011;2203;53.686;9.994;2023-02-01T01:59:20;49.77;;;7.60;;
4377;SDS011;2203;53.686;9.994;2023-02-01T02:01:47;53.17;;;6.13;;
4377;SDS011;2203;53.686;9.994;2023-02-01T02:04:12;68.33;;;7.37;;
4377;SDS011;2203;53.686;9.994;2023-02-01T02:09:28;68.77;;;7.43;;
4377;SDS011;2203;53.686;9.994;2023-02-01T02:11:54;67.53;;;7.77;;
4377;SDS011;2203;53.686;9.994;2023-02-01T02:14:19;46.00;;;6.83;;
4377;SDS011;2203;53.686;9.994;2023-02-01T02:20:04;59.20;;;8.53;;
4377;SDS011;2203;53.686;9.994;2023-02-01T02:39:55;46.63;;;6.77;;
4377;SDS011;2203;53.686;9.994;2023-02-01T02:46:25;65.23;;;7.27;;
4377;SDS011;2203;53.686;9.994;2023-02-01T02:51:49;49.33;;;7.03;;
4377;SDS011;2203;53.686;9.994;2023-02-01T02:54:36;43.10;;;4.60;;
4377;SDS011;2203;53.686;9.994;2023-02-01T03:00:11;57.27;;;6.63;;
4377;SDS011;2203;53.686;9.994;2023-02-01T03:02:56;40.47;;;5.93;;
4377;SDS011;2203;53.686;9.994;2023-02-01T03:05:42;36.27;;;5.80;;
4377;SDS011;2203;53.686;9.994;2023-02-01T03:08:11;40.00;;;5.67;;
4377;SDS011;2203;53.686;9.994;2023-02-01T03:21:44;35.67;;;4.33;;
4377;SDS011;2203;53.686;9.994;2023-02-01T03:24:12;53.73;;;6.60;;
4377;SDS011;2203;53.686;9.994;2023-02-01T03:26:43;36.33;;;4.80;;
4377;SDS011;2203;53.686;9.994;2023-02-01T03:29:14;63.50;;;6.80;;
4377;SDS011;2203;53.686;9.994;2023-02-01T03:31:46;49.00;;;5.27;;
4377;SDS011;2203;53.686;9.994;2023-02-01T03:34:12;35.13;;;4.90;;
4377;SDS011;2203;53.686;9.994;2023-02-01T03:36:40;27.50;;;4.70;;
4377;SDS011;2203;53.686;9.994;2023-02-01T03:39:16;37.60;;;5.50;;
4377;SDS011;2203;53.686;9.994;2023-02-01T03:41:50;32.27;;;5.00;;
4377;SDS011;2203;53.686;9.994;2023-02-01T03:49:45;33.90;;;4.73;;
4377;SDS011;2203;53.686;9.994;2023-02-01T03:52:16;25.37;;;4.10;;
4377;SDS011;2203;53.686;9.994;2023-02-01T03:54:43;28.83;;;4.23;;
4377;SDS011;2203;53.686;9.994;2023-02-01T03:57:11;31.57;;;4.57;;
4377;SDS011;2203;53.686;9.994;2023-02-01T03:59:41;30.67;;;4.30;;
4377;SDS011;2203;53.686;9.994;2023-02-01T04:02:08;36.70;;;5.20;;
4377;SDS011;2203;53.686;9.994;2023-02-01T04:04:34;36.27;;;5.07;;
4377;SDS011;2203;53.686;9.994;2023-02-01T04:06:59;29.00;;;4.07;;
4377;SDS011;2203;53.686;9.994;2023-02-01T04:09:25;43.47;;;5.33;;
4377;SDS011;2203;53.686;9.994;2023-02-01T04:11:50;47.27;;;6.23;;
4377;SDS011;2203;53.686;9.994;2023-02-01T04:14:16;31.93;;;5.23;;
4377;SDS011;2203;53.686;9.994;2023-02-01T04:16:41;30.87;;;5.13;;
4377;SDS011;2203;53.686;9.994;2023-02-01T04:19:06;46.03;;;4.83;;
4377;SDS011;2203;53.686;9.994;2023-02-01T04:21:32;36.80;;;4.10;;
4377;SDS011;2203;53.686;9.994;2023-02-01T04:23:57;25.13;;;4.40;;
4377;SDS011;2203;53.686;9.994;2023-02-01T04:26:23;30.37;;;5.33;;
4377;SDS011;2203;53.686;9.994;2023-02-01T04:28:48;25.10;;;3.73;;
4377;SDS011;2203;53.686;9.994;2023-02-01T04:31:14;24.23;;;2.50;;
4377;SDS011;2203;53.686;9.994;2023-02-01T04:33:40;32.50;;;3.30;;
4377;SDS011;2203;53.686;9.994;2023-02-01T04:36:06;18.37;;;3.73;;
4377;SDS011;2203;53.686;9.994;2023-02-01T04:38:31;26.00;;;3.90;;
4377;SDS011;2203;53.686;9.994;2023-02-01T04:40:57;25.40;;;4.03;;
4377;SDS011;2203;53.686;9.994;2023-02-01T04:43:23;43.10;;;4.17;;
4377;SDS011;2203;53.686;9.994;2023-02-01T04:45:49;40.53;;;4.40;;
4377;SDS011;2203;53.686;9.994;2023-02-01T04:48:15;36.90;;;4.40;;
4377;SDS011;2203;53.686;9.994;2023-02-01T04:50:41;38.57;;;4.00;;
4377;SDS011;2203;53.686;9.994;2023-02-01T04:53:07;23.60;;;3.60;;
4377;SDS011;2203;53.686;9.994;2023-02-01T04:55:32;21.13;;;2.80;;
4377;SDS011;2203;53.686;9.994;2023-02-01T04:57:58;14.93;;;2.60;;
4377;SDS011;2203;53.686;9.994;2023-02-01T05:00:23;21.00;;;2.93;;
4377;SDS011;2203;53.686;9.994;2023-02-01T05:02:49;20.00;;;2.70;;
4377;SDS011;2203;53.686;9.994;2023-02-01T05:05:15;15.00;;;2.50;;
4377;SDS011;2203;53.686;9.994;2023-02-01T05:07:40;11.10;;;2.27;;
4377;SDS011;2203;53.686;9.994;2023-02-01T05:10:06;12.47;;;2.37;;
4377;SDS011;2203;53.686;9.994;2023-02-01T05:12:32;20.87;;;2.30;;
4377;SDS011;2203;53.686;9.994;2023-02-01T05:15:16;12.97;;;2.00;;
4377;SDS011;2203;53.686;9.994;2023-02-01T05:17:41;17.43;;;2.40;;
4377;SDS011;2203;53.686;9.994;2023-02-01T05:20:07;13.60;;;2.03;;
4377;SDS011;2203;53.686;9.994;2023-02-01T05:22:33;10.40;;;2.47;;
4377;SDS011;2203;53.686;9.994;2023-02-01T05:24:59;16.17;;;1.50;;
4377;SDS011;2203;53.686;9.994;2023-02-01T05:27:24;5.37;;;1.13;;
4377;SDS011;2203;53.686;9.994;2023-02-01T05:29:49;4.33;;;1.23;;
4377;SDS011;2203;53.686;9.994;2023-02-01T05:32:15;7.23;;;1.60;;
4377;SDS011;2203;53.686;9.994;2023-02-01T05:34:40;9.67;;;1.30;;
4377;SDS011;2203;53.686;9.994;2023-02-01T05:37:06;8.07;;;1.97;;
4377;SDS011;2203;53.686;9.994;2023-02-01T05:39:31;15.03;;;1.93;;
4377;SDS011;2203;53.686;9.994;2023-02-01T05:41:56;17.43;;;2.30;;
4377;SDS011;2203;53.686;9.994;2023-02-01T05:44:22;5.90;;;1.23;;
4377;SDS011;2203;53.686;9.994;2023-02-01T05:46:47;8.07;;;1.13;;
4377;SDS011;2203;53.686;9.994;2023-02-01T05:49:12;1.80;;;0.90;;
4377;SDS011;2203;53.686;9.994;2023-02-01T05:51:38;6.83;;;1.30;;
4377;SDS011;2203;53.686;9.994;2023-02-01T05:54:03;2.80;;;0.90;;
4377;SDS011;2203;53.686;9.994;2023-02-01T05:56:29;3.90;;;0.80;;
4377;SDS011;2203;53.686;9.994;2023-02-01T05:58:54;4.00;;;1.23;;
4377;SDS011;2203;53.686;9.994;2023-02-01T06:01:19;8.20;;;1.40;;
4377;SDS011;2203;53.686;9.994;2023-02-01T06:03:45;7.60;;;1.00;;
4377;SDS011;2203;53.686;9.994;2023-02-01T06:06:10;7.40;;;1.40;;
4377;SDS011;2203;53.686;9.994;2023-02-01T06:08:36;6.63;;;1.33;;
4377;SDS011;2203;53.686;9.994;2023-02-01T06:11:02;5.80;;;1.87;;
4377;SDS011;2203;53.686;9.994;2023-02-01T06:13:28;3.77;;;0.87;;
4377;SDS011;2203;53.686;9.994;2023-02-01T06:15:54;9.90;;;1.13;;
4377;SDS011;2203;53.686;9.994;2023-02-01T06:18:20;8.47;;;1.30;;
4377;SDS011;2203;53.686;9.994;2023-02-01T06:20:51;12.07;;;1.47;;
4377;SDS011;2203;53.686;9.994;2023-02-01T06:23:20;5.63;;;1.60;;
4377;SDS011;2203;53.686;9.994;2023-02-01T06:25:48;4.47;;;1.07;;
4377;SDS011;2203;53.686;9.994;2023-02-01T06:28:17;3.90;;;1.30;;
4377;SDS011;2203;53.686;9.994;2023-02-01T06:30:42;6.43;;;1.90;;
4377;SDS011;2203;53.686;9.994;2023-02-01T06:33:11;6.40;;;1.00;;
4377;SDS011;2203;53.686;9.994;2023-02-01T06:35:40;9.80;;;1.70;;
4377;SDS011;2203;53.686;9.994;2023-02-01T06:38:07;9.20;;;1.60;;
4377;SDS011;2203;53.686;9.994;2023-02-01T06:40:32;11.63;;;1.67;;
4377;SDS011;2203;53.686;9.994;2023-02-01T06:42:58;10.80;;;1.83;;
4377;SDS011;2203;53.686;9.994;2023-02-01T06:45:23;18.17;;;1.87;;
4377;SDS011;2203;53.686;9.994;2023-02-01T06:47:49;5.53;;;1.87;;
4377;SDS011;2203;53.686;9.994;2023-02-01T06:50:14;10.17;;;1.77;;
4377;SDS011;2203;53.686;9.994;2023-02-01T06:52:40;12.70;;;2.50;;
4377;SDS011;2203;53.686;9.994;2023-02-01T06:55:05;16.87;;;2.40;;
4377;SDS011;2203;53.686;9.994;2023-02-01T06:57:31;17.40;;;2.07;;
4377;SDS011;2203;53.686;9.994;2023-02-01T06:59:58;23.57;;;2.60;;
4377;SDS011;2203;53.686;9.994;2023-02-01T07:02:23;13.30;;;3.17;;
4377;SDS011;2203;53.686;9.994;2023-02-01T07:04:48;12.97;;;2.73;;
4377;SDS011;2203;53.686;9.994;2023-02-01T07:07:14;15.27;;;2.50;;
4377;SDS011;2203;53.686;9.994;2023-02-01T07:09:40;17.17;;;2.60;;
4377;SDS011;2203;53.686;9.994;2023-02-01T07:12:05;26.50;;;3.43;;
4377;SDS011;2203;53.686;9.994;2023-02-01T07:14:31;20.93;;;3.10;;
4377;SDS011;2203;53.686;9.994;2023-02-01T07:16:56;30.07;;;3.10;;
4377;SDS011;2203;53.686;9.994;2023-02-01T07:19:22;22.30;;;3.80;;
4377;SDS011;2203;53.686;9.994;2023-02-01T07:21:47;30.23;;;4.10;;
4377;SDS011;2203;53.686;9.994;2023-02-01T07:24:12;24.70;;;4.00;;
4377;SDS011;2203;53.686;9.994;2023-02-01T07:26:39;36.90;;;6.70;;
4377;SDS011;2203;53.686;9.994;2023-02-01T07:29:05;42.63;;;5.53;;
4377;SDS011;2203;53.686;9.994;2023-02-01T07:31:30;42.57;;;4.60;;
4377;SDS011;2203;53.686;9.994;2023-02-01T07:33:55;42.10;;;5.80;;
4377;SDS011;2203;53.686;9.994;2023-02-01T07:36:22;47.40;;;5.10;;
4377;SDS011;2203;53.686;9.994;2023-02-01T07:38:48;34.53;;;6.00;;
4377;SDS011;2203;53.686;9.994;2023-02-01T07:41:13;28.40;;;4.10;;
4377;SDS011;2203;53.686;9.994;2023-02-01T07:43:39;34.37;;;3.70;;
4377;SDS011;2203;53.686;9.994;2023-02-01T07:46:05;22.27;;;4.30;;
4377;SDS011;2203;53.686;9.994;2023-02-01T07:48:31;48.53;;;4.73;;
4377;SDS011;2203;53.686;9.994;2023-02-01T07:53:24;35.33;;;4.30;;
4377;SDS011;2203;53.686;9.994;2023-02-01T07:55:50;35.67;;;5.07;;
4377;SDS011;2203;53.686;9.994;2023-02-01T07:58:15;47.00;;;6.10;;
4377;SDS011;2203;53.686;9.994;2023-02-01T08:00:40;43.03;;;5.20;;
4377;SDS011;2203;53.686;9.994;2023-02-01T08:03:24;38.37;;;4.30;;
4377;SDS011;2203;53.686;9.994;2023-02-01T08:05:53;33.93;;;4.50;;
4377;SDS011;2203;53.686;9.994;2023-02-01T08:08:20;46.20;;;5.93;;
4377;SDS011;2203;53.686;9.994;2023-02-01T08:10:46;33.33;;;4.57;;
4377;SDS011;2203;53.686;9.994;2023-02-01T08:13:11;41.93;;;5.17;;
4377;SDS011;2203;53.686;9.994;2023-02-01T08:15:36;44.60;;;6.80;;
4377;SDS011;2203;53.686;9.994;2023-02-01T08:18:02;33.60;;;5.00;;
4377;SDS011;2203;53.686;9.994;2023-02-01T08:20:27;61.50;;;6.13;;
4377;SDS011;2203;53.686;9.994;2023-02-01T08:22:53;44.83;;;6.40;;
4377;SDS011;2203;53.686;9.994;2023-02-01T08:25:19;33.80;;;5.50;;
4377;SDS011;2203;53.686;9.994;2023-02-01T08:27:44;37.17;;;6.77;;
4377;SDS011;2203;53.686;9.994;2023-02-01T08:30:10;42.10;;;5.90;;
4377;SDS011;2203;53.686;9.994;2023-02-01T08:32:36;34.20;;;6.30;;
4377;SDS011;2203;53.686;9.994;2023-02-01T08:35:02;40.53;;;5.50;;
4377;SDS011;2203;53.686;9.994;2023-02-01T08:37:28;37.67;;;5.60;;
4377;SDS011;2203;53.686;9.994;2023-02-01T08:39:54;36.30;;;5.17;;
4377;SDS011;2203;53.686;9.994;2023-02-01T08:42:19;54.63;;;5.10;;
4377;SDS011;2203;53.686;9.994;2023-02-01T08:45:03;25.50;;;5.03;;
4377;SDS011;2203;53.686;9.994;2023-02-01T08:47:29;43.87;;;5.60;;
4377;SDS011;2203;53.686;9.994;2023-02-01T08:49:55;32.37;;;4.50;;
4377;SDS011;2203;53.686;9.994;2023-02-01T08:52:21;22.00;;;3.67;;
4377;SDS011;2203;53.686;9.994;2023-02-01T08:54:46;32.83;;;4.07;;
4377;SDS011;2203;53.686;9.994;2023-02-01T08:57:11;27.80;;;3.50;;
4377;SDS011;2203;53.686;9.994;2023-02-01T08:59:37;21.73;;;3.37;;
4377;SDS011;2203;53.686;9.994;2023-02-01T09:02:02;26.47;;;3.20;;
4377;SDS011;2203;53.686;9.994;2023-02-01T09:04:28;14.20;;;2.80;;
4377;SDS011;2203;53.686;9.994;2023-02-01T09:06:53;25.63;;;3.47;;
4377;SDS011;2203;53.686;9.994;2023-02-01T09:09:20;22.57;;;3.03;;
4377;SDS011;2203;53.686;9.994;2023-02-01T09:11:46;30.93;;;4.70;;
4377;SDS011;2203;53.686;9.994;2023-02-01T09:14:12;29.83;;;4.07;;
4377;SDS011;2203;53.686;9.994;2023-02-01T09:16:37;40.50;;;4.57;;
4377;SDS011;2203;53.686;9.994;2023-02-01T09:19:02;26.17;;;4.10;;
4377;SDS011;2203;53.686;9.994;2023-02-01T09:21:28;30.17;;;4.70;;
4377;SDS011;2203;53.686;9.994;2023-02-01T09:23:54;31.30;;;4.90;;
4377;SDS011;2203;53.686;9.994;2023-02-01T09:26:19;36.37;;;5.30;;
4377;SDS011;2203;53.686;9.994;2023-02-01T09:28:45;32.80;;;4.53;;
4377;SDS011;2203;53.686;9.994;2023-02-01T09:31:10;39.83;;;4.80;;
4377;SDS011;2203;53.686;9.994;2023-02-01T09:33:35;34.13;;;5.43;;
4377;SDS011;2203;53.686;9.994;2023-02-01T09:36:02;50.27;;;5.60;;
4377;SDS011;2203;53.686;9.994;2023-02-01T09:38:29;51.47;;;4.50;;
4377;SDS011;2203;53.686;9.994;2023-02-01T09:40:56;43.87;;;5.40;;
4377;SDS011;2203;53.686;9.994;2023-02-01T09:48:16;37.33;;;4.47;;
4377;SDS011;2203;53.686;9.994;2023-02-01T09:50:48;31.80;;;4.83;;
4377;SDS011;2203;53.686;9.994;2023-02-01T09:56:09;31.63;;;5.30;;
4377;SDS011;2203;53.686;9.994;2023-02-01T09:58:47;64.37;;;6.10;;
4377;SDS011;2203;53.686;9.994;2023-02-01T10:01:24;49.40;;;6.87;;
4377;SDS011;2203;53.686;9.994;2023-02-01T10:03:52;31.73;;;5.13;;
4377;SDS011;2203;53.686;9.994;2023-02-01T10:06:31;45.27;;;5.53;;
4377;SDS011;2203;53.686;9.994;2023-02-01T10:17:29;49.90;;;5.73;;
4377;SDS011;2203;53.686;9.994;2023-02-01T10:20:29;51.23;;;9.30;;
4377;SDS011;2203;53.686;9.994;2023-02-01T10:26:02;45.67;;;5.53;;
4377;SDS011;2203;53.686;9.994;2023-02-01T10:28:33;40.30;;;5.33;;
4377;SDS011;2203;53.686;9.994;2023-02-01T10:31:01;35.90;;;4.30;;
4377;SDS011;2203;53.686;9.994;2023-02-01T10:33:49;40.27;;;5.27;;
4377;SDS011;2203;53.686;9.994;2023-02-01T10:36:27;36.00;;;5.43;;
4377;SDS011;2203;53.686;9.994;2023-02-01T10:38:55;45.67;;;5.50;;
4377;SDS011;2203;53.686;9.994;2023-02-01T10:41:21;42.77;;;4.93;;
4377;SDS011;2203;53.686;9.994;2023-02-01T10:43:48;24.87;;;6.20;;
4377;SDS011;2203;53.686;9.994;2023-02-01T10:46:18;36.93;;;5.47;;
4377;SDS011;2203;53.686;9.994;2023-02-01T10:48:44;36.07;;;5.87;;
4377;SDS011;2203;53.686;9.994;2023-02-01T10:51:54;40.57;;;5.33;;
4377;SDS011;2203;53.686;9.994;2023-02-01T10:54:09;31.77;;;5.20;;
4377;SDS011;2203;53.686;9.994;2023-02-01T10:56:39;60.60;;;6.73;;
4377;SDS011;2203;53.686;9.994;2023-02-01T10:59:05;41.77;;;5.30;;
4377;SDS011;2203;53.686;9.994;2023-02-01T11:01:40;48.47;;;6.03;;
4377;SDS011;2203;53.686;9.994;2023-02-01T11:04:10;40.50;;;5.13;;
4377;SDS011;2203;53.686;9.994;2023-02-01T11:06:39;35.93;;;4.73;;
4377;SDS011;2203;53.686;9.994;2023-02-01T11:09:10;41.70;;;5.20;;
4377;SDS011;2203;53.686;9.994;2023-02-01T11:11:57;35.03;;;4.37;;
4377;SDS011;2203;53.686;9.994;2023-02-01T11:17:20;34.97;;;4.10;;
4377;SDS011;2203;53.686;9.994;2023-02-01T11:19:58;24.67;;;3.93;;
4377;SDS011;2203;53.686;9.994;2023-02-01T11:22:48;37.90;;;5.97;;
4377;SDS011;2203;53.686;9.994;2023-02-01T11:25:17;31.53;;;4.60;;
4377;SDS011;2203;53.686;9.994;2023-02-01T11:27:43;42.30;;;8.30;;
4377;SDS011;2203;53.686;9.994;2023-02-01T11:32:57;27.80;;;4.47;;
4377;SDS011;2203;53.686;9.994;2023-02-01T11:35:22;43.83;;;4.80;;
4377;SDS011;2203;53.686;9.994;2023-02-01T11:37:58;34.70;;;4.07;;
4377;SDS011;2203;53.686;9.994;2023-02-01T11:42:58;34.07;;;3.70;;
4377;SDS011;2203;53.686;9.994;2023-02-01T11:45:31;41.77;;;5.10;;
4377;SDS011;2203;53.686;9.994;2023-02-01T11:47:59;30.40;;;3.97;;
4377;SDS011;2203;53.686;9.994;2023-02-01T11:55:48;20.00;;;4.37;;
4377;SDS011;2203;53.686;9.994;2023-02-01T12:03:57;39.10;;;4.33;;
4377;SDS011;2203;53.686;9.994;2023-02-01T12:09:36;28.90;;;5.23;;
4377;SDS011;2203;53.686;9.994;2023-02-01T12:23:17;27.20;;;3.77;;
4377;SDS011;2203;53.686;9.994;2023-02-01T12:31:39;27.27;;;2.20;;
4377;SDS011;2203;53.686;9.994;2023-02-01T12:39:24;7.23;;;1.40;;
4377;SDS011;2203;53.686;9.994;2023-02-01T12:42:43;3.37;;;1.20;;
4377;SDS011;2203;53.686;9.994;2023-02-01T12:44:51;3.87;;;1.67;;
4377;SDS011;2203;53.686;9.994;2023-02-01T12:47:47;10.83;;;1.50;;
4377;SDS011;2203;53.686;9.994;2023-02-01T12:50:20;7.17;;;1.13;;
4377;SDS011;2203;53.686;9.994;2023-02-01T12:52:54;3.30;;;1.03;;
4377;SDS011;2203;53.686;9.994;2023-02-01T12:55:32;2.20;;;1.00;;
4377;SDS011;2203;53.686;9.994;2023-02-01T12:58:12;2.63;;;1.00;;
4377;SDS011;2203;53.686;9.994;2023-02-01T13:00:50;4.67;;;1.00;;
4377;SDS011;2203;53.686;9.994;2023-02-01T13:05:58;4.10;;;1.00;;
4377;SDS011;2203;53.686;9.994;2023-02-01T13:08:42;2.53;;;0.87;;
4377;SDS011;2203;53.686;9.994;2023-02-01T13:11:12;5.00;;;1.00;;
4377;SDS011;2203;53.686;9.994;2023-02-01T13:13:54;5.47;;;0.80;;
4377;SDS011;2203;53.686;9.994;2023-02-01T13:19:09;4.20;;;1.07;;
4377;SDS011;2203;53.686;9.994;2023-02-01T13:21:42;8.43;;;1.33;;
4377;SDS011;2203;53.686;9.994;2023-02-01T13:24:30;6.73;;;1.00;;
4377;SDS011;2203;53.686;9.994;2023-02-01T13:26:58;4.10;;;0.97;;
4377;SDS011;2203;53.686;9.994;2023-02-01T13:29:24;2.70;;;1.13;;
4377;SDS011;2203;53.686;9.994;2023-02-01T13:31:54;12.40;;;1.33;;
4377;SDS011;2203;53.686;9.994;2023-02-01T13:42:47;8.17;;;1.57;;
4377;SDS011;2203;53.686;9.994;2023-02-01T13:45:15;5.27;;;1.47;;
4377;SDS011;2203;53.686;9.994;2023-02-01T13:47:43;9.73;;;1.27;;
4377;SDS011;2203;53.686;9.994;2023-02-01T13:52:44;4.67;;;1.80;;
4377;SDS011;2203;53.686;9.994;2023-02-01T13:57:45;10.50;;;1.40;;
4377;SDS011;2203;53.686;9.994;2023-02-01T14:00:31;8.03;;;1.00;;
4377;SDS011;2203;53.686;9.994;2023-02-01T14:13:28;20.17;;;1.80;;
4377;SDS011;2203;53.686;9.994;2023-02-01T14:21:33;6.50;;;1.83;;
4377;SDS011;2203;53.686;9.994;2023-02-01T14:37:09;22.13;;;2.30;;
4377;SDS011;2203;53.686;9.994;2023-02-01T14:42:29;18.07;;;2.47;;
4377;SDS011;2203;53.686;9.994;2023-02-01T14:47:51;27.50;;;3.20;;
4377;SDS011;2203;53.686;9.994;2023-02-01T15:00:56;18.33;;;2.80;;
4377;SDS011;2203;53.686;9.994;2023-02-01T15:06:24;10.60;;;2.20;;
4377;SDS011;2203;53.686;9.994;2023-02-01T15:08:53;20.87;;;2.53;;
4377;SDS011;2203;53.686;9.994;2023-02-01T15:11:20;14.73;;;2.37;;
4377;SDS011;2203;53.686;9.994;2023-02-01T15:13:49;14.73;;;2.50;;
4377;SDS011;2203;53.686;9.994;2023-02-01T15:16:19;17.07;;;2.67;;
4377;SDS011;2203;53.686;9.994;2023-02-01T15:18:44;33.00;;;2.17;;
4377;SDS011;2203;53.686;9.994;2023-02-01T15:21:23;10.03;;;1.90;;
4377;SDS011;2203;53.686;9.994;2023-02-01T15:23:50;13.20;;;2.90;;
4377;SDS011;2203;53.686;9.994;2023-02-01T15:26:26;17.47;;;3.10;;
4377;SDS011;2203;53.686;9.994;2023-02-01T15:28:58;16.23;;;2.93;;
4377;SDS011;2203;53.686;9.994;2023-02-01T15:31:31;15.90;;;2.30;;
4377;SDS011;2203;53.686;9.994;2023-02-01T15:34:01;18.73;;;3.30;;
4377;SDS011;2203;53.686;9.994;2023-02-01T15:36:26;25.20;;;3.00;;
4377;SDS011;2203;53.686;9.994;2023-02-01T15:41:39;26.90;;;3.30;;
4377;SDS011;2203;53.686;9.994;2023-02-01T15:44:17;20.60;;;3.47;;
4377;SDS011;2203;53.686;9.994;2023-02-01T15:47:05;30.53;;;4.10;;
4377;SDS011;2203;53.686;9.994;2023-02-01T15:49:37;24.80;;;3.70;;
4377;SDS011;2203;53.686;9.994;2023-02-01T15:52:09;33.77;;;5.27;;
4377;SDS011;2203;53.686;9.994;2023-02-01T15:54:43;26.07;;;3.27;;
4377;SDS011;2203;53.686;9.994;2023-02-01T15:57:11;27.53;;;4.17;;
4377;SDS011;2203;53.686;9.994;2023-02-01T15:59:44;21.13;;;3.90;;
4377;SDS011;2203;53.686;9.994;2023-02-01T16:02:51;22.50;;;4.23;;
4377;SDS011;2203;53.686;9.994;2023-02-01T16:05:04;21.07;;;3.50;;
4377;SDS011;2203;53.686;9.994;2023-02-01T16:07:32;43.13;;;5.50;;
4377;SDS011;2203;53.686;9.994;2023-02-01T16:09:59;26.30;;;3.17;;
4377;SDS011;2203;53.686;9.994;2023-02-01T16:15:03;47.70;;;6.37;;
4377;SDS011;2203;53.686;9.994;2023-02-01T16:17:29;24.93;;;4.50;;
4377;SDS011;2203;53.686;9.994;2023-02-01T16:19:54;49.57;;;4.27;;
4377;SDS011;2203;53.686;9.994;2023-02-01T16:22:20;39.60;;;6.00;;
4377;SDS011;2203;53.686;9.994;2023-02-01T16:24:45;41.03;;;5.17;;
4377;SDS011;2203;53.686;9.994;2023-02-01T16:27:11;31.20;;;4.73;;
4377;SDS011;2203;53.686;9.994;2023-02-01T16:29:36;37.93;;;6.13;;
4377;SDS011;2203;53.686;9.994;2023-02-01T16:32:02;47.17;;;7.50;;
4377;SDS011;2203;53.686;9.994;2023-02-01T16:34:29;36.37;;;5.93;;
4377;SDS011;2203;53.686;9.994;2023-02-01T16:36:54;52.00;;;5.93;;
4377;SDS011;2203;53.686;9.994;2023-02-01T16:39:22;35.60;;;5.50;;
4377;SDS011;2203;53.686;9.994;2023-02-01T16:41:48;51.53;;;7.40;;
4377;SDS011;2203;53.686;9.994;2023-02-01T16:44:13;83.07;;;7.07;;
4377;SDS011;2203;53.686;9.994;2023-02-01T16:46:39;50.13;;;5.50;;
4377;SDS011;2203;53.686;9.994;2023-02-01T16:49:28;49.27;;;7.23;;
4377;SDS011;2203;53.686;9.994;2023-02-01T16:51:55;43.00;;;5.13;;
4377;SDS011;2203;53.686;9.994;2023-02-01T16:54:22;41.77;;;6.27;;
4377;SDS011;2203;53.686;9.994;2023-02-01T16:56:47;41.87;;;6.03;;
4377;SDS011;2203;53.686;9.994;2023-02-01T16:59:13;49.63;;;7.53;;
4377;SDS011;2203;53.686;9.994;2023-02-01T17:01:39;51.13;;;7.40;;
4377;SDS011;2203;53.686;9.994;2023-02-01T17:04:07;40.47;;;6.10;;
4377;SDS011;2203;53.686;9.994;2023-02-01T17:06:32;41.47;;;6.27;;
4377;SDS011;2203;53.686;9.994;2023-02-01T17:08:58;45.80;;;6.10;;
4377;SDS011;2203;53.686;9.994;2023-02-01T17:11:24;51.93;;;6.60;;
4377;SDS011;2203;53.686;9.994;2023-02-01T17:13:52;50.70;;;5.97;;
4377;SDS011;2203;53.686;9.994;2023-02-01T17:18:43;48.67;;;6.00;;
4377;SDS011;2203;53.686;9.994;2023-02-01T17:21:09;32.90;;;5.47;;
4377;SDS011;2203;53.686;9.994;2023-02-01T17:23:35;69.33;;;6.60;;
4377;SDS011;2203;53.686;9.994;2023-02-01T17:26:00;34.90;;;5.80;;
4377;SDS011;2203;53.686;9.994;2023-02-01T17:28:27;70.43;;;6.13;;
4377;SDS011;2203;53.686;9.994;2023-02-01T17:30:53;38.27;;;6.50;;
4377;SDS011;2203;53.686;9.994;2023-02-01T17:33:27;51.57;;;7.07;;
4377;SDS011;2203;53.686;9.994;2023-02-01T17:35:58;65.30;;;5.23;;
4377;SDS011;2203;53.686;9.994;2023-02-01T17:38:24;43.17;;;6.20;;
4377;SDS011;2203;53.686;9.994;2023-02-01T17:40:50;49.93;;;6.80;;
4377;SDS011;2203;53.686;9.994;2023-02-01T17:43:17;27.63;;;4.50;;
4377;SDS011;2203;53.686;9.994;2023-02-01T17:48:29;24.20;;;4.63;;
4377;SDS011;2203;53.686;9.994;2023-02-01T17:50:54;39.10;;;5.47;;
4377;SDS011;2203;53.686;9.994;2023-02-01T17:53:26;35.47;;;6.03;;
4377;SDS011;2203;53.686;9.994;2023-02-01T17:55:53;54.87;;;6.47;;
4377;SDS011;2203;53.686;9.994;2023-02-01T17:58:20;36.47;;;5.50;;
4377;SDS011;2203;53.686;9.994;2023-02-01T18:00:47;44.20;;;6.47;;
4377;SDS011;2203;53.686;9.994;2023-02-01T18:05:47;54.20;;;6.77;;
4377;SDS011;2203;53.686;9.994;2023-02-01T18:08:15;64.03;;;6.33;;
4377;SDS011;2203;53.686;9.994;2023-02-01T18:10:42;51.30;;;6.00;;
4377;SDS011;2203;53.686;9.994;2023-02-01T18:13:10;51.23;;;7.13;;
4377;SDS011;2203;53.686;9.994;2023-02-01T18:15:36;56.03;;;7.60;;
4377;SDS011;2203;53.686;9.994;2023-02-01T18:18:03;48.73;;;6.70;;
4377;SDS011;2203;53.686;9.994;2023-02-01T18:20:29;74.93;;;7.40;;
4377;SDS011;2203;53.686;9.994;2023-02-01T18:22:54;35.20;;;5.40;;
4377;SDS011;2203;53.686;9.994;2023-02-01T18:25:21;51.27;;;6.00;;
4377;SDS011;2203;53.686;9.994;2023-02-01T18:27:48;44.07;;;5.70;;
4377;SDS011;2203;53.686;9.994;2023-02-01T18:30:16;38.60;;;6.83;;